createdAt,value
2023-02-22T00:48:27.554Z,50.852791
2023-02-22T00:49:27.543Z,50.852776
2023-02-22T00:50:27.540Z,50.852776
2023-02-22T00:51:27.572Z,50.852665
2023-02-22T00:52:27.530Z,50.852734
2023-02-22T00:53:27.522Z,50.852772
2023-02-22T00:54:27.525Z,50.852844
2023-02-22T00:55:27.545Z,50.852844
2023-02-22T00:56:27.514Z,50.852844
2023-02-22T00:57:27.502Z,50.852844
2023-02-22T00:58:27.481Z,50.852844
2023-02-22T00:59:27.491Z,50.852844
2023-02-22T01:00:27.489Z,50.852844
2023-02-22T01:01:27.565Z,50.852844
2023-02-22T01:02:27.564Z,50.852844
2023-02-22T01:03:27.526Z,50.852844
2023-02-22T01:04:27.456Z,50.852844
2023-02-22T01:05:27.453Z,50.852440
2023-02-22T01:06:27.445Z,50.852440
2023-02-22T01:07:27.459Z,50.852440
2023-02-22T01:08:27.430Z,50.852707
2023-02-22T01:09:27.409Z,50.852707
2023-02-22T01:10:27.446Z,50.852707
2023-02-22T01:11:27.444Z,50.852707
2023-02-22T01:12:27.397Z,50.852707
2023-02-22T01:13:27.394Z,50.852707
2023-02-22T01:14:27.390Z,50.852707
2023-02-22T01:15:27.373Z,50.852707
2023-02-22T01:16:27.410Z,50.852707
2023-02-22T01:17:27.365Z,50.852707
2023-02-22T01:18:27.396Z,50.852707
2023-02-22T01:19:27.359Z,50.852707
2023-02-22T01:20:27.397Z,50.852707
2023-02-22T01:21:27.338Z,50.852707
2023-02-22T01:22:27.335Z,50.852707
2023-02-22T01:23:27.330Z,50.852707
2023-02-22T01:24:27.323Z,50.852707
2023-02-22T01:25:27.331Z,50.852707
2023-02-22T01:26:27.343Z,50.852707
2023-02-22T01:27:27.302Z,50.852707
2023-02-22T01:28:27.326Z,50.852707
2023-02-22T01:29:27.304Z,50.852707
2023-02-22T01:30:27.351Z,50.852707
2023-02-22T01:31:27.316Z,50.852707
2023-02-22T01:32:27.284Z,50.852707
2023-02-22T01:33:27.265Z,50.852707
2023-02-22T01:34:27.295Z,50.852707
2023-02-22T01:35:27.267Z,50.852707
2023-02-22T01:36:27.236Z,50.852707
2023-02-22T01:37:27.232Z,50.852707
2023-02-22T01:38:27.233Z,50.852707
2023-02-22T01:39:27.266Z,50.852707
2023-02-22T01:40:27.242Z,50.852707
2023-02-22T01:41:27.219Z,50.852707
2023-02-22T01:42:27.220Z,50.852707
2023-02-22T01:43:27.200Z,50.852707
2023-02-22T01:44:27.213Z,50.852707
2023-02-22T01:45:27.211Z,50.852707
2023-02-22T01:46:27.291Z,50.852707
2023-02-22T01:47:27.180Z,50.852707
2023-02-22T01:48:27.176Z,50.852707
2023-02-22T01:49:27.171Z,50.852749
2023-02-22T01:50:27.162Z,50.852749
2023-02-22T01:51:27.173Z,50.852707
2023-02-22T01:52:27.137Z,50.852676
2023-02-22T01:53:27.149Z,50.852654
2023-02-22T01:54:27.135Z,50.852703
2023-02-22T01:55:27.126Z,50.852680
2023-02-22T01:56:27.106Z,50.852741
2023-02-22T01:57:27.134Z,50.852730
2023-02-22T01:58:27.100Z,50.852692
2023-02-22T01:59:27.097Z,50.852753
2023-02-22T02:00:27.083Z,50.852737
2023-02-22T02:01:27.137Z,50.852798
2023-02-22T02:02:27.119Z,50.852737
2023-02-22T02:03:27.060Z,50.852772
2023-02-22T02:04:27.074Z,50.852650
2023-02-22T02:05:27.064Z,50.852715
2023-02-22T02:06:27.079Z,50.852657
2023-02-22T02:07:27.061Z,50.852711
2023-02-22T02:08:27.066Z,50.852776
2023-02-22T02:09:27.083Z,50.852711
2023-02-22T02:10:27.045Z,50.852711
2023-02-22T02:11:27.029Z,50.852791
2023-02-22T02:12:27.061Z,50.852783
2023-02-22T02:13:27.009Z,50.852741
2023-02-22T02:14:27.009Z,50.852737
2023-02-22T02:15:26.990Z,50.852745
2023-02-22T02:16:27.057Z,50.852772
2023-02-22T02:17:26.997Z,50.852676
2023-02-22T02:18:26.999Z,50.852680
2023-02-22T02:19:26.957Z,50.852730
2023-02-22T02:20:26.953Z,50.852657
2023-02-22T02:21:26.988Z,50.852695
2023-02-22T02:22:26.955Z,50.852776
2023-02-22T02:23:26.972Z,50.852695
2023-02-22T02:24:26.964Z,50.852722
2023-02-22T02:25:26.941Z,50.852734
2023-02-22T02:26:26.992Z,50.852741
2023-02-22T02:27:26.941Z,50.852749
2023-02-22T02:28:26.949Z,50.852703
2023-02-22T02:29:26.941Z,50.852692
2023-02-22T02:30:26.988Z,50.852741
2023-02-22T02:31:26.959Z,50.852715
2023-02-22T02:32:26.929Z,50.852695
2023-02-22T02:33:26.879Z,50.852692
2023-02-22T02:34:26.928Z,50.852692
2023-02-22T02:35:26.896Z,50.852753
2023-02-22T02:36:26.880Z,50.852737
2023-02-22T02:37:26.878Z,50.852737
2023-02-22T02:38:26.923Z,50.852745
2023-02-22T02:39:26.894Z,50.852753
2023-02-22T02:40:26.909Z,50.852726
2023-02-22T02:41:26.843Z,50.852718
2023-02-22T02:42:26.841Z,50.852779
2023-02-22T02:43:26.880Z,50.852718
2023-02-22T02:44:26.834Z,50.852768
2023-02-22T02:45:26.807Z,50.852684
2023-02-22T02:46:26.806Z,50.852768
2023-02-22T02:47:26.850Z,50.852753
2023-02-22T02:48:26.798Z,50.852768
2023-02-22T02:49:26.814Z,50.852798
2023-02-22T02:50:26.777Z,50.852730
2023-02-22T02:51:26.782Z,50.852749
2023-02-22T02:52:26.819Z,50.852745
2023-02-22T02:53:26.765Z,50.852768
2023-02-22T02:54:26.760Z,50.852764
2023-02-22T02:55:26.739Z,50.852779
2023-02-22T02:56:26.748Z,50.852768
2023-02-22T02:57:26.745Z,50.852802
2023-02-22T02:58:26.744Z,50.852795
2023-02-22T02:59:26.734Z,50.852768
2023-02-22T03:00:26.725Z,50.852787
2023-02-22T03:01:26.741Z,50.852795
2023-02-22T03:02:26.742Z,50.852844
2023-02-22T03:03:26.702Z,50.852913
2023-02-22T03:04:26.707Z,50.852798
2023-02-22T03:05:26.710Z,50.852776
2023-02-22T03:06:26.689Z,50.852856
2023-02-22T03:07:26.708Z,50.852890
2023-02-22T03:08:26.673Z,50.852875
2023-02-22T03:09:26.673Z,50.852852
2023-02-22T03:10:26.678Z,50.852726
2023-02-22T03:11:26.673Z,50.852726
2023-02-22T03:12:26.657Z,50.852749
2023-02-22T03:13:26.628Z,50.852745
2023-02-22T03:14:26.658Z,50.852730
2023-02-22T03:15:26.633Z,50.852787
2023-02-22T03:16:26.694Z,50.852737
2023-02-22T03:17:26.643Z,50.852856
2023-02-22T03:18:26.625Z,50.852848
2023-02-22T03:19:26.627Z,50.852821
2023-02-22T03:20:26.596Z,50.852840
2023-02-22T03:21:26.597Z,50.852734
2023-02-22T03:22:26.603Z,50.852772
2023-02-22T03:23:26.625Z,50.852829
2023-02-22T03:24:26.599Z,50.852837
2023-02-22T03:25:26.578Z,50.852814
2023-02-22T03:26:26.574Z,50.852749
2023-02-22T03:27:26.548Z,50.852768
2023-02-22T03:28:26.564Z,50.852722
2023-02-22T03:29:26.614Z,50.852730
2023-02-22T03:30:26.570Z,50.852863
2023-02-22T03:31:26.593Z,50.852863
2023-02-22T03:32:26.556Z,50.852798
2023-02-22T03:33:26.520Z,50.852856
2023-02-22T03:34:26.509Z,50.852825
2023-02-22T03:35:26.528Z,50.852680
2023-02-22T03:36:26.567Z,50.852711
2023-02-22T03:37:26.538Z,50.852818
2023-02-22T03:38:26.488Z,50.852825
2023-02-22T03:39:26.480Z,50.852707
2023-02-22T03:40:26.497Z,50.852901
2023-02-22T03:41:26.487Z,50.852856
2023-02-22T03:42:26.536Z,50.852898
2023-02-22T03:43:26.492Z,50.853176
2023-02-22T03:44:26.464Z,50.853176
2023-02-22T03:45:26.465Z,50.852684
2023-02-22T03:46:26.495Z,50.852802
2023-02-22T03:47:26.547Z,50.852776
2023-02-22T03:48:26.426Z,50.852879
2023-02-22T03:49:26.420Z,50.853046
2023-02-22T03:50:26.424Z,50.853046
2023-02-22T03:51:26.422Z,50.853046
2023-02-22T03:52:26.432Z,50.853046
2023-02-22T03:53:26.423Z,50.852798
2023-02-22T03:54:26.401Z,50.852806
2023-02-22T03:55:26.385Z,50.853134
2023-02-22T03:56:26.389Z,50.852943
2023-02-22T03:57:26.420Z,50.852676
2023-02-22T03:58:26.393Z,50.852566
2023-02-22T03:59:26.357Z,50.852543
2023-02-22T04:00:26.355Z,50.852806
2023-02-22T04:01:26.352Z,50.852913
2023-02-22T04:02:26.375Z,50.852680
2023-02-22T04:03:26.343Z,50.852596
2023-02-22T04:04:26.369Z,50.852760
2023-02-22T04:05:26.335Z,50.852856
2023-02-22T04:06:26.309Z,50.852730
2023-02-22T04:07:26.325Z,50.852783
2023-02-22T04:08:26.332Z,50.852715
2023-02-22T04:09:26.319Z,50.852871
2023-02-22T04:10:26.317Z,50.852875
2023-02-22T04:11:26.287Z,50.852833
2023-02-22T04:12:26.273Z,50.852909
2023-02-22T04:13:26.280Z,50.852863
2023-02-22T04:14:28.169Z,50.852840
2023-02-22T04:15:26.262Z,50.852928
2023-02-22T04:16:26.279Z,50.852810
2023-02-22T04:17:26.332Z,50.852692
2023-02-22T04:18:26.327Z,50.852707
2023-02-22T04:19:26.252Z,50.852821
2023-02-22T04:20:26.282Z,50.852577
2023-02-22T04:21:26.261Z,50.852745
2023-02-22T04:22:26.283Z,50.852837
2023-02-22T04:23:26.253Z,50.852741
2023-02-22T04:24:26.226Z,50.852734
2023-02-22T04:25:26.251Z,50.852451
2023-02-22T04:26:26.197Z,50.852589
2023-02-22T04:27:26.249Z,50.852581
2023-02-22T04:28:26.198Z,50.852512
2023-02-22T04:29:26.249Z,50.852448
2023-02-22T04:30:26.227Z,50.852402
2023-02-22T04:31:26.232Z,50.852760
2023-02-22T04:32:26.177Z,50.852795
2023-02-22T04:33:26.155Z,50.852795
2023-02-22T04:34:26.205Z,50.853233
2023-02-22T04:35:26.164Z,50.853233
2023-02-22T04:36:26.194Z,50.853218
2023-02-22T04:37:26.149Z,50.853218
2023-02-22T04:38:26.156Z,50.852871
2023-02-22T04:39:26.184Z,50.852726
2023-02-22T04:40:26.154Z,50.852627
2023-02-22T04:41:26.132Z,50.852577
2023-02-22T04:42:26.190Z,50.852730
2023-02-22T04:43:26.114Z,50.852871
2023-02-22T04:44:26.121Z,50.853085
2023-02-22T04:45:26.118Z,50.852985
2023-02-22T04:46:26.107Z,50.853325
2023-02-22T04:47:26.121Z,50.853046
2023-02-22T04:48:26.101Z,50.852535
2023-02-22T04:49:26.072Z,50.852787
2023-02-22T04:50:26.190Z,50.852757
2023-02-22T04:51:26.146Z,50.852875
2023-02-22T04:52:26.050Z,50.852772
2023-02-22T04:53:26.082Z,50.852749
2023-02-22T04:54:26.099Z,50.852673
2023-02-22T04:55:26.097Z,50.852859
2023-02-22T04:56:26.044Z,50.852825
2023-02-22T04:57:26.060Z,50.852787
2023-02-22T04:58:26.053Z,50.852802
2023-02-22T04:59:26.013Z,50.852818
2023-02-22T05:00:26.003Z,50.852875
2023-02-22T05:01:25.996Z,50.852825
2023-02-22T05:02:26.009Z,50.852825
2023-02-22T05:03:26.014Z,50.852818
2023-02-22T05:04:26.041Z,50.852818
2023-02-22T05:05:26.021Z,50.852768
2023-02-22T05:06:25.972Z,50.852837
2023-02-22T05:07:25.973Z,50.852718
2023-02-22T05:08:25.964Z,50.852757
2023-02-22T05:09:25.969Z,50.852718
2023-02-22T05:10:25.942Z,50.852680
2023-02-22T05:11:25.944Z,50.852695
2023-02-22T05:12:25.943Z,50.852570
2023-02-22T05:13:25.954Z,50.852650
2023-02-22T05:14:25.966Z,50.852673
2023-02-22T05:15:25.901Z,50.852749
2023-02-22T05:16:25.907Z,50.852730
2023-02-22T05:17:25.895Z,50.852760
2023-02-22T05:18:25.950Z,50.852757
2023-02-22T05:19:25.895Z,50.852882
2023-02-22T05:20:25.985Z,50.852818
2023-02-22T05:21:25.934Z,50.852757
2023-02-22T05:22:25.888Z,50.852741
2023-02-22T05:23:25.916Z,50.852589
2023-02-22T05:24:25.887Z,50.852512
2023-02-22T05:25:25.864Z,50.852673
2023-02-22T05:26:26.007Z,50.852600
2023-02-22T05:27:25.841Z,50.852764
2023-02-22T05:28:25.859Z,50.852730
2023-02-22T05:29:25.860Z,50.852718
2023-02-22T05:30:25.881Z,50.852779
2023-02-22T05:31:25.923Z,50.852795
2023-02-22T05:32:32.823Z,50.852879
2023-02-22T05:33:25.801Z,50.852802
2023-02-22T05:34:25.811Z,50.852814
2023-02-22T05:35:25.777Z,50.852798
2023-02-22T05:36:25.777Z,50.852879
2023-02-22T05:37:25.795Z,50.852890
2023-02-22T05:38:25.775Z,50.852837
2023-02-22T05:39:25.747Z,50.852928
2023-02-22T05:40:25.753Z,50.852985
2023-02-22T05:41:25.759Z,50.852859
2023-02-22T05:42:25.765Z,50.852844
2023-02-22T05:43:25.734Z,50.852821
2023-02-22T05:44:25.764Z,50.852818
2023-02-22T05:45:25.726Z,50.852867
2023-02-22T05:46:25.766Z,50.852844
2023-02-22T05:47:25.730Z,50.852810
2023-02-22T05:48:25.703Z,50.852852
2023-02-22T05:49:25.722Z,50.852474
2023-02-22T05:50:25.729Z,50.852943
2023-02-22T05:51:25.708Z,50.852943
2023-02-22T05:52:25.697Z,50.852943
2023-02-22T05:53:25.688Z,50.852943
2023-02-22T05:54:25.703Z,50.852943
2023-02-22T05:55:25.663Z,50.852943
2023-02-22T05:56:25.706Z,50.852943
2023-02-22T05:57:25.663Z,50.852943
2023-02-22T05:58:25.663Z,50.852943
2023-02-22T05:59:25.678Z,50.852943
2023-02-22T06:00:25.666Z,50.852943
2023-02-22T06:01:25.630Z,50.852943
2023-02-22T06:02:25.640Z,50.852943
2023-02-22T06:03:25.667Z,50.852943
2023-02-22T06:04:25.606Z,50.852943
2023-02-22T06:05:25.601Z,50.852943
2023-02-22T06:06:25.603Z,50.852943
2023-02-22T06:07:25.588Z,50.852943
2023-02-22T06:08:25.589Z,50.852943
2023-02-22T06:09:25.595Z,50.852943
2023-02-22T06:10:25.572Z,50.852943
2023-02-22T06:11:25.577Z,50.852943
2023-02-22T06:12:25.561Z,50.852943
2023-02-22T06:13:25.543Z,50.852943
2023-02-22T06:14:25.581Z,50.852943
2023-02-22T06:15:25.559Z,50.852943
2023-02-22T06:16:25.565Z,50.852943
2023-02-22T06:17:25.525Z,50.852943
2023-02-22T06:18:25.530Z,50.852943
2023-02-22T06:19:25.534Z,50.852943
2023-02-22T06:20:25.505Z,50.852943
2023-02-22T06:21:25.525Z,50.852943
2023-02-22T06:22:25.507Z,50.852943
2023-02-22T06:23:25.495Z,50.852943
2023-02-22T06:24:25.501Z,50.852943
2023-02-22T06:25:25.496Z,50.852943
2023-02-22T06:26:25.481Z,50.852943
2023-02-22T06:27:25.487Z,50.852943
2023-02-22T06:28:25.460Z,50.852943
2023-02-22T06:29:25.459Z,50.852943
2023-02-22T06:30:25.551Z,50.852943
2023-02-22T06:31:25.502Z,50.852943
2023-02-22T06:32:25.436Z,50.852943
2023-02-22T06:33:25.437Z,50.852943
2023-02-22T06:34:25.445Z,50.852943
2023-02-22T06:35:25.445Z,50.852943
2023-02-22T06:36:25.433Z,50.852943
2023-02-22T06:37:25.400Z,50.852943
2023-02-22T06:38:25.426Z,50.852943
2023-02-22T06:39:25.400Z,50.852943
2023-02-22T06:40:25.416Z,50.852943
2023-02-22T06:41:25.384Z,50.852943
2023-02-22T06:42:25.490Z,50.852943
2023-02-22T06:43:25.370Z,50.852943
2023-02-22T06:44:25.401Z,50.852943
2023-02-22T06:45:25.415Z,50.852943
2023-02-22T06:46:25.381Z,50.852943
2023-02-22T06:47:25.347Z,50.852943
2023-02-22T06:48:25.339Z,50.852943
2023-02-22T06:49:25.361Z,50.852943
2023-02-22T06:50:25.354Z,50.852943
2023-02-22T06:51:25.348Z,50.852943
2023-02-22T06:52:25.317Z,50.852943
2023-02-22T06:53:25.308Z,50.852943
2023-02-22T06:54:25.318Z,50.852943
2023-02-22T06:55:25.339Z,50.852943
2023-02-22T06:56:25.282Z,50.852943
2023-02-22T06:57:25.288Z,50.852943
2023-02-22T06:58:25.274Z,50.852943
2023-02-22T06:59:25.274Z,50.852943
2023-02-22T07:00:25.289Z,50.852943
2023-02-22T07:01:25.252Z,50.852943
2023-02-22T07:02:25.255Z,50.852943
2023-02-22T07:03:25.315Z,50.852943
2023-02-22T07:04:25.241Z,50.852943
2023-02-22T07:05:25.240Z,50.852943
2023-02-22T07:06:25.255Z,50.852943
2023-02-22T07:07:25.250Z,50.852943
2023-02-22T07:08:25.232Z,50.852795
2023-02-22T07:09:25.207Z,50.852833
2023-02-22T07:10:25.263Z,50.852703
2023-02-22T07:11:25.203Z,50.852772
2023-02-22T07:12:25.194Z,50.852863
2023-02-22T07:13:25.204Z,50.852913
2023-02-22T07:14:25.205Z,50.852974
2023-02-22T07:15:25.199Z,50.852852
2023-02-22T07:16:25.220Z,50.852722
2023-02-22T07:17:25.176Z,50.852688
2023-02-22T07:18:25.197Z,50.852764
2023-02-22T07:19:25.172Z,50.852779
2023-02-22T07:20:25.170Z,50.852787
2023-02-22T07:21:25.158Z,50.852814
2023-02-22T07:22:25.161Z,50.852810
2023-02-22T07:23:25.135Z,50.852715
2023-02-22T07:24:25.153Z,50.852684
2023-02-22T07:25:25.133Z,50.852806
2023-02-22T07:26:25.131Z,50.852726
2023-02-22T07:27:25.137Z,50.852726
2023-02-22T07:28:25.105Z,50.852726
2023-02-22T07:29:25.118Z,50.852726
2023-02-22T07:30:25.231Z,50.852726
2023-02-22T07:31:25.100Z,50.852726
2023-02-22T07:32:25.228Z,50.852726
2023-02-22T07:33:25.096Z,50.852692
2023-02-22T07:34:25.087Z,50.852688
2023-02-22T07:35:25.082Z,50.852829
2023-02-22T07:36:25.121Z,50.852932
2023-02-22T07:37:25.073Z,50.852936
2023-02-22T07:38:25.100Z,50.852627
2023-02-22T07:39:25.063Z,50.852680
2023-02-22T07:40:25.074Z,50.852772
2023-02-22T07:41:25.061Z,50.852791
2023-02-22T07:42:25.038Z,50.852802
2023-02-22T07:43:25.053Z,50.852734
2023-02-22T07:44:25.020Z,50.852783
2023-02-22T07:45:25.050Z,50.852669
2023-02-22T07:46:25.013Z,50.852592
2023-02-22T07:47:25.003Z,50.852356
2023-02-22T07:48:24.989Z,50.852386
2023-02-22T07:49:25.007Z,50.852402
2023-02-22T07:50:24.981Z,50.852402
2023-02-22T07:51:24.981Z,50.852436
2023-02-22T07:52:24.963Z,50.852661
2023-02-22T07:53:25.855Z,50.852665
2023-02-22T07:54:24.975Z,50.852665
2023-02-22T07:55:24.986Z,50.852776
2023-02-22T07:56:24.971Z,50.852837
2023-02-22T07:57:24.988Z,50.852810
2023-02-22T07:58:24.958Z,50.852783
2023-02-22T07:59:24.917Z,50.852783
2023-02-22T08:00:24.929Z,50.852783
2023-02-22T08:01:24.940Z,50.852753
2023-02-22T08:02:24.949Z,50.852768
2023-02-22T08:03:24.956Z,50.852680
2023-02-22T08:04:24.903Z,50.852695
2023-02-22T08:05:24.898Z,50.852783
2023-02-22T08:06:24.908Z,50.852726
2023-02-22T08:07:24.896Z,50.852917
2023-02-22T08:08:24.920Z,50.852947
2023-02-22T08:09:24.897Z,50.852718
2023-02-22T08:10:24.864Z,50.852875
2023-02-22T08:11:24.856Z,50.852875
2023-02-22T08:12:24.847Z,50.852783
2023-02-22T08:13:24.836Z,50.852783
2023-02-22T08:14:24.847Z,50.852783
2023-02-22T08:15:24.868Z,50.852783
2023-02-22T08:16:24.866Z,50.852783
2023-02-22T08:17:24.872Z,50.852783
2023-02-22T08:18:24.822Z,50.852783
2023-02-22T08:19:24.808Z,50.852783
2023-02-22T08:20:24.825Z,50.852783
2023-02-22T08:21:24.825Z,50.852741
2023-02-22T08:22:24.791Z,50.852608
2023-02-22T08:23:24.792Z,50.852684
2023-02-22T08:24:24.765Z,50.852730
2023-02-22T08:25:24.768Z,50.852634
2023-02-22T08:26:24.755Z,50.852703
2023-02-22T08:27:24.755Z,50.852734
2023-02-22T08:28:24.759Z,50.852711
2023-02-22T08:29:24.754Z,50.852676
2023-02-22T08:30:24.761Z,50.852726
2023-02-22T08:31:24.775Z,50.852715
2023-02-22T08:32:24.880Z,50.852806
2023-02-22T08:33:24.834Z,50.852787
2023-02-22T08:34:24.707Z,50.852741
2023-02-22T08:35:24.722Z,50.852779
2023-02-22T08:36:24.712Z,50.852814
2023-02-22T08:37:24.706Z,50.852711
2023-02-22T08:38:24.724Z,50.852741
2023-02-22T08:39:24.688Z,50.852715
2023-02-22T08:40:24.693Z,50.852806
2023-02-22T08:41:24.659Z,50.852772
2023-02-22T08:42:24.689Z,50.852814
2023-02-22T08:43:24.693Z,50.852680
2023-02-22T08:44:24.655Z,50.852646
2023-02-22T08:45:24.631Z,50.852776
2023-02-22T08:46:24.666Z,50.852711
2023-02-22T08:47:24.631Z,50.852745
2023-02-22T08:48:24.647Z,50.852688
2023-02-22T08:49:24.615Z,50.852741
2023-02-22T08:50:24.717Z,50.852825
2023-02-22T08:51:26.247Z,50.852859
2023-02-22T08:52:24.607Z,50.852776
2023-02-22T08:53:24.603Z,50.852631
2023-02-22T08:54:24.608Z,50.852703
2023-02-22T08:55:24.593Z,50.852757
2023-02-22T08:56:24.593Z,50.852867
2023-02-22T08:57:24.587Z,50.852844
2023-02-22T08:58:24.584Z,50.852928
2023-02-22T08:59:24.585Z,50.852844
2023-02-22T09:00:24.549Z,50.852768
2023-02-22T09:01:32.701Z,50.852833
2023-02-22T09:02:24.638Z,50.852821
2023-02-22T09:03:24.605Z,50.852795
2023-02-22T09:04:24.527Z,50.852871
2023-02-22T09:05:24.539Z,50.852806
2023-02-22T09:06:24.505Z,50.852749
2023-02-22T09:07:24.521Z,50.852856
2023-02-22T09:08:24.527Z,50.852806
2023-02-22T09:09:24.558Z,50.852730
2023-02-22T09:10:24.489Z,50.852551
2023-02-22T09:11:24.476Z,50.852669
2023-02-22T09:12:24.485Z,50.852715
2023-02-22T09:13:24.466Z,50.852749
2023-02-22T09:14:24.502Z,50.852825
2023-02-22T09:15:24.505Z,50.852814
2023-02-22T09:16:24.529Z,50.852787
2023-02-22T09:17:24.434Z,50.852753
2023-02-22T09:18:26.881Z,50.852840
2023-02-22T09:19:24.452Z,50.852821
2023-02-22T09:20:24.490Z,50.852829
2023-02-22T09:21:24.418Z,50.852745
2023-02-22T09:22:24.440Z,50.852707
2023-02-22T09:23:24.420Z,50.852783
2023-02-22T09:24:24.429Z,50.852741
2023-02-22T09:25:24.432Z,50.852707
2023-02-22T09:26:24.411Z,50.852730
2023-02-22T09:27:24.430Z,50.852787
2023-02-22T09:28:24.374Z,50.852787
2023-02-22T09:29:24.381Z,50.852669
2023-02-22T09:30:24.578Z,50.852871
2023-02-22T09:31:24.546Z,50.852905
2023-02-22T09:32:24.542Z,50.852734
2023-02-22T09:33:24.399Z,50.852745
2023-02-22T09:34:24.375Z,50.852829
2023-02-22T09:35:24.348Z,50.852737
2023-02-22T09:36:26.119Z,50.852741
2023-02-22T09:37:24.338Z,50.852730
2023-02-22T09:38:24.325Z,50.852814
2023-02-22T09:39:24.482Z,50.852772
2023-02-22T09:40:24.299Z,50.852711
2023-02-22T09:41:24.339Z,50.852829
2023-02-22T09:42:24.298Z,50.852783
2023-02-22T09:43:24.285Z,50.852798
2023-02-22T09:44:24.280Z,50.852795
2023-02-22T09:45:24.297Z,50.852757
2023-02-22T09:46:24.268Z,50.852757
2023-02-22T09:47:24.418Z,50.852737
2023-02-22T09:48:24.292Z,50.852859
2023-02-22T09:49:24.265Z,50.852818
2023-02-22T09:50:24.292Z,50.852772
2023-02-22T09:51:24.255Z,50.852692
2023-02-22T09:52:24.261Z,50.852741
2023-02-22T09:53:26.358Z,50.852703
2023-02-22T09:54:24.233Z,50.852753
2023-02-22T09:55:24.233Z,50.852852
2023-02-22T09:56:24.237Z,50.852848
2023-02-22T09:57:24.205Z,50.852764
2023-02-22T09:58:24.236Z,50.852688
2023-02-22T09:59:24.223Z,50.852684
2023-02-22T10:00:24.216Z,50.852734
2023-02-22T10:01:24.169Z,50.852772
2023-02-22T10:02:24.241Z,50.852703
2023-02-22T10:03:24.215Z,50.852749
2023-02-22T10:04:24.205Z,50.852741
2023-02-22T10:05:24.198Z,50.852608
2023-02-22T10:06:24.165Z,50.852585
2023-02-22T10:07:24.188Z,50.852516
2023-02-22T10:08:24.196Z,50.852497
2023-02-22T10:09:24.140Z,50.852547
2023-02-22T10:10:24.152Z,50.852543
2023-02-22T10:11:24.125Z,50.852608
2023-02-22T10:12:24.112Z,50.852634
2023-02-22T10:13:24.119Z,50.852726
2023-02-22T10:14:24.128Z,50.852787
2023-02-22T10:15:24.107Z,50.852619
2023-02-22T10:16:24.136Z,50.852600
2023-02-22T10:17:24.095Z,50.852768
2023-02-22T10:18:24.066Z,50.852730
2023-02-22T10:19:24.093Z,50.852695
2023-02-22T10:20:24.089Z,50.852558
2023-02-22T10:21:24.095Z,50.852654
2023-02-22T10:22:24.059Z,50.852623
2023-02-22T10:23:24.040Z,50.852688
2023-02-22T10:24:24.052Z,50.852814
2023-02-22T10:25:24.045Z,50.852722
2023-02-22T10:26:24.074Z,50.852726
2023-02-22T10:27:24.012Z,50.852867
2023-02-22T10:28:24.032Z,50.852680
2023-02-22T10:29:24.007Z,50.852673
2023-02-22T10:30:25.593Z,50.852707
2023-02-22T10:31:24.100Z,50.852673
2023-02-22T10:32:24.059Z,50.852585
2023-02-22T10:33:23.985Z,50.852650
2023-02-22T10:34:23.964Z,50.852730
2023-02-22T10:35:23.969Z,50.852741
2023-02-22T10:36:23.977Z,50.852608
2023-02-22T10:37:24.061Z,50.852615
2023-02-22T10:38:23.961Z,50.852680
2023-02-22T10:39:24.007Z,50.852703
2023-02-22T10:40:23.950Z,50.852623
2023-02-22T10:41:23.963Z,50.852657
2023-02-22T10:42:23.940Z,50.852779
2023-02-22T10:43:23.974Z,50.852726
2023-02-22T10:44:23.920Z,50.852707
2023-02-22T10:45:23.933Z,50.852707
2023-02-22T10:46:23.921Z,50.852722
2023-02-22T10:47:23.901Z,50.852657
2023-02-22T10:48:23.972Z,50.852699
2023-02-22T10:49:23.898Z,50.852390
2023-02-22T10:50:23.904Z,50.852715
2023-02-22T10:51:23.863Z,50.852551
2023-02-22T10:52:23.881Z,50.852634
2023-02-22T10:53:23.877Z,50.852848
2023-02-22T10:54:23.897Z,50.852890
2023-02-22T10:55:23.849Z,50.852856
2023-02-22T10:56:23.865Z,50.852840
2023-02-22T10:57:23.834Z,50.852787
2023-02-22T10:58:23.829Z,50.852737
2023-02-22T10:59:25.612Z,50.852695
2023-02-22T11:00:23.845Z,50.852707
2023-02-22T11:01:23.914Z,50.852757
2023-02-22T11:02:23.814Z,50.852745
2023-02-22T11:03:23.815Z,50.852730
2023-02-22T11:04:23.792Z,50.852726
2023-02-22T11:05:23.867Z,50.852772
2023-02-22T11:06:23.776Z,50.852791
2023-02-22T11:07:23.798Z,50.852768
2023-02-22T11:08:23.791Z,50.852654
2023-02-22T11:09:23.764Z,50.852692
2023-02-22T11:10:23.761Z,50.852718
2023-02-22T11:11:23.774Z,50.852650
2023-02-22T11:12:23.751Z,50.852673
2023-02-22T11:13:23.747Z,50.852760
2023-02-22T11:14:23.745Z,50.852711
2023-02-22T11:15:23.726Z,50.852711
2023-02-22T11:16:23.750Z,50.852711
2023-02-22T11:17:23.753Z,50.852734
2023-02-22T11:18:23.702Z,50.852657
2023-02-22T11:19:23.679Z,50.852650
2023-02-22T11:20:23.692Z,50.852707
2023-02-22T11:21:23.709Z,50.852669
2023-02-22T11:22:23.671Z,50.852551
2023-02-22T11:23:23.721Z,50.852642
2023-02-22T11:24:23.681Z,50.852779
2023-02-22T11:25:23.713Z,50.852673
2023-02-22T11:26:23.658Z,50.852722
2023-02-22T11:27:23.631Z,50.852806
2023-02-22T11:28:23.632Z,50.852840
2023-02-22T11:29:23.676Z,50.852760
2023-02-22T11:30:23.659Z,50.852730
2023-02-22T11:31:23.816Z,50.852699
2023-02-22T11:32:23.645Z,50.852684
2023-02-22T11:33:31.791Z,50.852760
2023-02-22T11:34:23.608Z,50.852829
2023-02-22T11:35:23.624Z,50.852776
2023-02-22T11:36:23.585Z,50.852665
2023-02-22T11:37:23.565Z,50.852608
2023-02-22T11:38:23.591Z,50.852745
2023-02-22T11:39:23.563Z,50.852768
2023-02-22T11:40:23.568Z,50.852806
2023-02-22T11:41:23.537Z,50.852711
2023-02-22T11:42:23.546Z,50.852833
2023-02-22T11:43:23.527Z,50.852863
2023-02-22T11:44:23.515Z,50.852837
2023-02-22T11:45:23.506Z,50.852779
2023-02-22T11:46:23.546Z,50.852688
2023-02-22T11:47:23.476Z,50.852604
2023-02-22T11:48:23.496Z,50.852512
2023-02-22T11:49:23.475Z,50.852585
2023-02-22T11:50:23.500Z,50.852631
2023-02-22T11:51:23.484Z,50.852844
2023-02-22T11:52:25.053Z,50.852760
2023-02-22T11:53:23.451Z,50.852711
2023-02-22T11:54:23.469Z,50.852703
2023-02-22T11:55:36.322Z,50.852734
2023-02-22T11:56:36.980Z,50.852711
2023-02-22T11:57:24.409Z,50.852825
2023-02-22T11:58:23.414Z,50.852745
2023-02-22T11:59:23.421Z,50.852764
2023-02-22T12:00:23.421Z,50.852718
2023-02-22T12:01:23.389Z,50.852695
2023-02-22T12:02:23.421Z,50.852669
2023-02-22T12:03:23.424Z,50.852699
2023-02-22T12:04:23.413Z,50.852734
2023-02-22T12:05:23.368Z,50.852718
2023-02-22T12:06:23.416Z,50.852760
2023-02-22T12:07:23.351Z,50.852825
2023-02-22T12:08:23.357Z,50.852753
2023-02-22T12:09:23.337Z,50.852829
2023-02-22T12:10:23.328Z,50.852699
2023-02-22T12:11:23.340Z,50.852612
2023-02-22T12:12:23.329Z,50.852654